createdAt,value
2023-05-12T00:01:51.522Z,12.27
2023-05-12T00:04:20.989Z,12.17
2023-05-12T00:06:48.582Z,12.27
2023-05-12T00:09:15.504Z,12.42
2023-05-12T00:11:42.578Z,12.42
2023-05-12T00:14:09.657Z,12.34
2023-05-12T00:16:36.736Z,12.12
2023-05-12T00:19:04.087Z,12.09
2023-05-12T00:21:31.294Z,12.19
2023-05-12T00:23:58.126Z,12.27
2023-05-12T00:26:25.345Z,12.28
2023-05-12T00:28:52.591Z,12.21
2023-05-12T00:31:19.528Z,12.35
2023-05-12T00:33:46.649Z,12.29
2023-05-12T00:36:13.581Z,12.30
2023-05-12T00:38:41.833Z,12.11
2023-05-12T00:41:08.836Z,12.45
2023-05-12T00:43:35.984Z,12.16
2023-05-12T00:46:06.478Z,12.32
2023-05-12T00:48:34.763Z,12.23
2023-05-12T00:51:03.441Z,12.27
2023-05-12T00:53:41.361Z,12.34
2023-05-12T00:56:17.357Z,12.14
2023-05-12T00:58:44.407Z,12.04
2023-05-12T01:01:11.390Z,11.95
2023-05-12T01:03:38.521Z,12.24
2023-05-12T01:06:24.387Z,12.20
2023-05-12T01:08:51.791Z,12.27
2023-05-12T01:11:19.177Z,12.28
2023-05-12T01:13:46.207Z,12.11
2023-05-12T01:16:16.723Z,11.99
2023-05-12T01:18:50.439Z,12.12
2023-05-12T01:21:22.038Z,11.98
2023-05-12T01:24:09.522Z,11.66
2023-05-12T01:26:37.217Z,11.40
2023-05-12T01:29:05.392Z,11.38
2023-05-12T01:31:33.507Z,11.73
2023-05-12T01:36:43.029Z,11.38
2023-05-12T01:39:09.948Z,11.47
2023-05-12T01:41:36.734Z,11.88
2023-05-12T01:44:03.513Z,11.80
2023-05-12T01:46:31.028Z,11.71
2023-05-12T01:48:57.868Z,11.52
2023-05-12T01:51:24.879Z,11.34
2023-05-12T01:53:51.914Z,11.63
2023-05-12T01:56:21.325Z,11.88
2023-05-12T01:58:51.213Z,11.97
2023-05-12T02:01:21.940Z,12.06
2023-05-12T02:03:49.840Z,11.94
2023-05-12T02:06:18.799Z,11.95
2023-05-12T02:08:46.708Z,11.99
2023-05-12T02:11:13.967Z,11.89
2023-05-12T02:13:40.849Z,11.72
2023-05-12T02:16:08.096Z,11.96
2023-05-12T02:18:35.238Z,11.96
2023-05-12T02:21:02.684Z,11.55
2023-05-12T02:23:32.005Z,11.50
2023-05-12T02:25:58.767Z,11.65
2023-05-12T02:28:25.694Z,11.65
2023-05-12T02:31:05.328Z,11.74
2023-05-12T02:33:32.260Z,11.37
2023-05-12T02:35:59.316Z,11.53
2023-05-12T02:38:26.167Z,11.39
2023-05-12T02:40:55.765Z,11.45
2023-05-12T02:43:22.845Z,11.61
2023-05-12T02:45:49.845Z,11.52
2023-05-12T02:48:18.077Z,11.51
2023-05-12T02:50:48.293Z,11.72
2023-05-12T02:53:15.240Z,11.49
2023-05-12T02:55:42.710Z,11.43
2023-05-12T02:58:10.439Z,11.58
2023-05-12T03:00:37.399Z,11.61
2023-05-12T03:03:04.636Z,11.40
2023-05-12T03:05:31.803Z,11.29
2023-05-12T03:08:01.680Z,11.26
2023-05-12T03:10:28.739Z,11.39
2023-05-12T03:12:55.995Z,11.39
2023-05-12T03:15:23.239Z,11.37
2023-05-12T03:17:50.211Z,11.21
2023-05-12T03:20:19.712Z,11.04
2023-05-12T03:22:47.131Z,11.57
2023-05-12T03:25:14.812Z,11.57
2023-05-12T03:27:42.086Z,11.67
2023-05-12T03:30:10.410Z,11.52
2023-05-12T03:32:39.585Z,11.24
2023-05-12T03:35:08.002Z,11.33
2023-05-12T03:37:35.318Z,11.23
2023-05-12T03:40:02.563Z,11.34
2023-05-12T03:42:29.734Z,11.23
2023-05-12T03:44:56.682Z,10.99
2023-05-12T03:47:24.128Z,11.04
2023-05-12T03:49:51.617Z,11.36
2023-05-12T03:52:19.065Z,11.04
2023-05-12T03:54:45.920Z,11.00
2023-05-12T03:57:13.070Z,11.25
2023-05-12T03:59:40.079Z,11.25
2023-05-12T04:02:08.010Z,11.16
2023-05-12T04:04:35.410Z,11.33
2023-05-12T04:07:13.698Z,11.16
2023-05-12T04:09:40.805Z,11.28
2023-05-12T04:12:07.938Z,11.04
2023-05-12T04:14:42.795Z,11.11
2023-05-12T04:17:13.221Z,11.16
2023-05-12T04:19:40.112Z,11.24
2023-05-12T04:22:06.873Z,12.03
2023-05-12T04:24:42.495Z,12.33
2023-05-12T04:27:09.336Z,12.10
2023-05-12T04:29:36.399Z,12.84
2023-05-12T04:32:03.184Z,13.05
2023-05-12T04:34:35.840Z,11.90
2023-05-12T04:37:02.627Z,12.52
2023-05-12T04:39:34.721Z,11.56
2023-05-12T04:42:02.386Z,11.68
2023-05-12T04:44:29.211Z,11.48
2023-05-12T04:46:56.603Z,11.48
2023-05-12T04:49:23.535Z,11.01
2023-05-12T04:51:50.449Z,10.96
2023-05-12T04:54:17.324Z,11.28
2023-05-12T04:56:44.144Z,11.09
2023-05-12T04:59:18.653Z,11.09
2023-05-12T05:01:45.934Z,11.32
2023-05-12T05:04:12.804Z,11.31
2023-05-12T05:06:39.664Z,11.37
2023-05-12T05:09:06.592Z,11.15
2023-05-12T05:11:39.927Z,11.16
2023-05-12T05:14:15.791Z,11.30
2023-05-12T05:16:42.793Z,11.26
2023-05-12T05:19:20.002Z,11.30
2023-05-12T05:21:52.620Z,11.56
2023-05-12T05:24:19.756Z,11.63
2023-05-12T05:26:46.933Z,11.84
2023-05-12T05:29:13.756Z,11.32
2023-05-12T05:31:40.513Z,11.25
2023-05-12T05:34:07.419Z,11.63
2023-05-12T05:36:34.191Z,11.30
2023-05-12T05:39:01.110Z,11.59
2023-05-12T05:41:27.905Z,11.33
2023-05-12T05:43:54.671Z,11.41
2023-05-12T05:46:21.543Z,11.41
2023-05-12T05:48:48.546Z,11.49
2023-05-12T05:51:15.241Z,11.65
2023-05-12T05:53:42.152Z,11.66
2023-05-12T05:56:08.948Z,11.95
2023-05-12T05:58:35.814Z,11.73
2023-05-12T06:01:02.797Z,12.01
2023-05-12T06:03:30.099Z,12.01
2023-05-12T06:05:57.072Z,11.89
2023-05-12T06:08:23.819Z,11.68
2023-05-12T06:10:50.880Z,11.70
2023-05-12T06:13:17.662Z,11.51
2023-05-12T06:15:44.830Z,11.86
2023-05-12T06:18:12.310Z,11.84
2023-05-12T06:20:39.093Z,11.99
2023-05-12T06:23:06.920Z,11.82
2023-05-12T06:25:33.936Z,12.24
2023-05-12T06:28:00.743Z,12.34
2023-05-12T06:30:27.748Z,12.35
2023-05-12T06:32:55.085Z,12.58
2023-05-12T06:35:22.117Z,12.11
2023-05-12T06:37:51.031Z,12.40
2023-05-12T06:40:17.905Z,12.30
2023-05-12T06:42:47.147Z,12.40
2023-05-12T06:45:14.027Z,12.54
2023-05-12T06:47:40.963Z,12.33
2023-05-12T06:50:08.724Z,12.38
2023-05-12T06:52:35.768Z,12.52
2023-05-12T06:55:03.013Z,12.67
2023-05-12T06:57:29.773Z,12.67
2023-05-12T06:59:56.703Z,12.37
2023-05-12T07:02:23.559Z,12.64
2023-05-12T07:04:50.522Z,12.87
2023-05-12T07:07:17.368Z,12.93
2023-05-12T07:09:46.330Z,12.68
2023-05-12T07:12:13.182Z,12.47
2023-05-12T07:14:40.190Z,12.55
2023-05-12T07:17:07.330Z,12.63
2023-05-12T07:19:35.624Z,12.92
2023-05-12T07:22:02.400Z,12.93
2023-05-12T07:24:29.623Z,13.21
2023-05-12T07:26:56.892Z,13.23
2023-05-12T07:29:23.671Z,13.36
2023-05-12T07:31:50.622Z,13.61
2023-05-12T07:34:17.354Z,13.13
2023-05-12T07:36:44.142Z,13.89
2023-05-12T07:39:11.414Z,13.54
2023-05-12T07:41:39.783Z,13.11
2023-05-12T07:44:07.781Z,13.43
2023-05-12T07:46:37.545Z,13.28
2023-05-12T07:49:04.331Z,14.01
2023-05-12T07:51:31.237Z,13.79
2023-05-12T07:53:58.319Z,14.08
2023-05-12T07:56:25.222Z,14.45
2023-05-12T07:58:57.503Z,14.10
2023-05-12T08:01:26.779Z,14.22
2023-05-12T08:03:53.685Z,14.85
2023-05-12T08:06:20.825Z,14.78
2023-05-12T08:08:47.700Z,14.84
2023-05-12T08:11:14.523Z,14.71
2023-05-12T08:13:41.313Z,14.87
2023-05-12T08:16:17.150Z,14.75
2023-05-12T08:18:44.689Z,14.65
2023-05-12T08:21:11.526Z,14.86
2023-05-12T08:23:38.334Z,14.93
2023-05-12T08:26:05.249Z,14.80
2023-05-12T08:28:32.348Z,14.52
2023-05-12T08:31:02.656Z,14.76
2023-05-12T08:33:31.092Z,14.37
2023-05-12T08:35:58.031Z,15.25
2023-05-12T08:38:24.794Z,15.31
2023-05-12T08:41:13.010Z,15.01
2023-05-12T08:43:51.823Z,14.88
2023-05-12T08:46:19.131Z,14.90
2023-05-12T08:48:47.630Z,14.96
2023-05-12T08:51:14.848Z,15.10
2023-05-12T08:53:42.779Z,15.50
2023-05-12T08:58:42.957Z,15.85
2023-05-12T09:01:11.986Z,15.75
2023-05-12T09:03:39.316Z,15.68
2023-05-12T09:06:11.445Z,15.70
2023-05-12T09:08:39.367Z,15.81
2023-05-12T09:11:08.843Z,16.52
2023-05-12T09:13:38.519Z,16.07
2023-05-12T09:16:11.678Z,16.49
2023-05-12T09:18:56.722Z,16.58
2023-05-12T09:21:27.338Z,16.44
2023-05-12T09:24:07.261Z,16.54
2023-05-12T09:26:46.668Z,16.21
2023-05-12T09:29:23.916Z,15.98
2023-05-12T09:31:58.591Z,15.90
2023-05-12T09:34:44.535Z,16.30
2023-05-12T09:37:13.240Z,16.81
2023-05-12T09:39:41.375Z,16.84
2023-05-12T09:42:12.789Z,17.14
2023-05-12T09:44:41.054Z,17.13
2023-05-12T09:47:08.393Z,17.39
2023-05-12T09:49:37.555Z,17.47
2023-05-12T09:52:05.287Z,17.53
2023-05-12T09:54:36.884Z,17.75
2023-05-12T09:57:10.687Z,17.62
2023-05-12T09:59:38.973Z,17.76
2023-05-12T10:02:09.408Z,17.62
2023-05-12T10:04:56.310Z,16.88
2023-05-12T10:07:27.657Z,17.61
2023-05-12T10:12:39.820Z,18.24
2023-05-12T10:15:09.863Z,18.10
2023-05-12T10:17:43.942Z,18.41
2023-05-12T10:20:13.625Z,18.50
2023-05-12T10:22:41.226Z,18.11
2023-05-12T10:25:09.172Z,18.94
2023-05-12T10:30:18.175Z,18.26
2023-05-12T10:32:45.165Z,18.75
2023-05-12T10:35:16.077Z,18.76
2023-05-12T10:37:43.752Z,18.35
2023-05-12T10:40:11.335Z,18.59
2023-05-12T10:42:46.855Z,18.02
2023-05-12T10:45:20.677Z,17.81
2023-05-12T10:47:47.842Z,18.14
2023-05-12T10:50:14.870Z,18.39
2023-05-12T10:52:54.010Z,18.27
2023-05-12T10:55:42.264Z,18.61
2023-05-12T10:58:14.726Z,18.63
2023-05-12T11:00:51.814Z,18.47
2023-05-12T11:03:25.807Z,18.31
2023-05-12T11:06:05.188Z,18.49
2023-05-12T11:08:35.901Z,18.25
2023-05-12T11:11:03.322Z,18.49
2023-05-12T11:13:30.373Z,18.53
2023-05-12T11:16:00.990Z,18.15
2023-05-12T11:18:27.833Z,18.42
2023-05-12T11:20:54.853Z,18.26
2023-05-12T11:23:32.436Z,18.35
2023-05-12T11:26:01.870Z,18.09
2023-05-12T11:28:28.584Z,18.30
2023-05-12T11:30:55.849Z,18.15
2023-05-12T11:33:29.225Z,18.19
2023-05-12T11:35:56.015Z,18.15
2023-05-12T11:38:24.605Z,18.18
2023-05-12T11:40:51.552Z,18.04
2023-05-12T11:43:23.646Z,18.05
2023-05-12T11:45:50.695Z,17.80
2023-05-12T11:48:17.772Z,17.71
2023-05-12T11:50:48.848Z,17.38
2023-05-12T11:53:19.606Z,16.91
2023-05-12T11:55:54.708Z,17.04
2023-05-12T11:58:27.051Z,17.27
2023-05-12T12:03:47.675Z,17.21
2023-05-12T12:06:14.959Z,17.36
2023-05-12T12:09:12.432Z,17.25
2023-05-12T12:11:39.244Z,17.19
2023-05-12T12:14:09.076Z,17.44
2023-05-12T12:16:35.843Z,17.64
2023-05-12T12:19:02.737Z,17.54
2023-05-12T12:21:29.563Z,17.61
2023-05-12T12:24:05.053Z,17.47
2023-05-12T12:26:32.062Z,17.34
2023-05-12T12:28:58.765Z,17.31
2023-05-12T12:31:25.562Z,17.69
2023-05-12T12:33:52.530Z,17.81
2023-05-12T12:36:19.510Z,17.65
2023-05-12T12:38:46.358Z,17.53
2023-05-12T12:41:13.496Z,17.68
2023-05-12T12:43:40.258Z,17.61
2023-05-12T12:46:07.358Z,17.76
2023-05-12T12:48:34.330Z,18.19
2023-05-12T12:51:01.565Z,18.16
2023-05-12T12:53:28.305Z,18.12
2023-05-12T12:56:06.956Z,18.50
2023-05-12T12:58:33.659Z,19.24
2023-05-12T13:01:00.543Z,19.50
2023-05-12T13:03:27.372Z,19.65
2023-05-12T13:05:54.362Z,20.51
2023-05-12T13:08:21.349Z,20.47
2023-05-12T13:10:48.144Z,20.26
2023-05-12T13:13:15.032Z,19.99
2023-05-12T13:15:44.025Z,19.87
2023-05-12T13:18:12.492Z,20.08
2023-05-12T13:20:48.941Z,19.56
2023-05-12T13:23:15.754Z,19.54
2023-05-12T13:25:44.986Z,19.15
2023-05-12T13:28:11.838Z,19.37
2023-05-12T13:30:38.687Z,18.36
2023-05-12T13:33:06.326Z,18.78
2023-05-12T13:35:36.443Z,18.86
2023-05-12T13:38:03.304Z,18.47
2023-05-12T13:40:30.355Z,18.28
2023-05-12T13:42:57.054Z,19.01
2023-05-12T13:45:24.205Z,19.06
2023-05-12T13:47:51.146Z,19.08
2023-05-12T13:50:18.173Z,19.56
2023-05-12T13:52:49.593Z,19.52
2023-05-12T13:55:21.037Z,19.76
2023-05-12T13:57:49.067Z,19.94
2023-05-12T14:00:17.426Z,19.79
2023-05-12T14:02:44.705Z,20.01
2023-05-12T14:05:12.119Z,20.33
2023-05-12T14:07:39.009Z,20.22
2023-05-12T14:10:06.512Z,20.84
2023-05-12T14:12:33.479Z,20.48
2023-05-12T14:15:15.804Z,20.32
2023-05-12T14:17:48.481Z,20.38
2023-05-12T14:20:15.564Z,20.41
2023-05-12T14:22:42.781Z,20.40
2023-05-12T14:25:09.681Z,20.29
2023-05-12T14:27:36.540Z,20.04
2023-05-12T14:30:04.038Z,19.46
2023-05-12T14:32:33.475Z,19.43
2023-05-12T14:35:01.010Z,19.46
2023-05-12T14:37:27.865Z,19.10
2023-05-12T14:39:56.792Z,19.25
2023-05-12T14:42:23.911Z,19.06
2023-05-12T14:44:50.653Z,18.83
2023-05-12T14:47:21.689Z,18.96
2023-05-12T14:52:31.300Z,18.97
2023-05-12T14:54:58.367Z,19.12
2023-05-12T14:57:25.203Z,19.08
2023-05-12T14:59:56.411Z,19.08
2023-05-12T15:02:23.284Z,19.23
2023-05-12T15:04:50.101Z,18.65
2023-05-12T15:07:16.803Z,18.92
2023-05-12T15:09:43.730Z,19.12
2023-05-12T15:12:10.602Z,19.48
2023-05-12T15:14:37.635Z,19.34
2023-05-12T15:17:07.572Z,19.02
2023-05-12T15:19:34.562Z,19.39
2023-05-12T15:22:01.266Z,19.30
2023-05-12T15:24:28.820Z,19.33
2023-05-12T15:26:55.835Z,19.26
2023-05-12T15:29:26.423Z,18.91
2023-05-12T15:32:03.470Z,19.01
2023-05-12T15:34:39.329Z,19.15
2023-05-12T15:37:06.702Z,19.12
2023-05-12T15:39:33.507Z,19.04
2023-05-12T15:42:01.120Z,19.00
2023-05-12T15:44:28.068Z,18.90
2023-05-12T15:46:55.102Z,18.88
2023-05-12T15:49:29.463Z,18.73
2023-05-12T15:52:04.396Z,18.83
2023-05-12T15:55:07.279Z,18.51
2023-05-12T15:57:36.533Z,18.58
2023-05-12T16:00:04.174Z,18.43
2023-05-12T16:02:31.278Z,18.50
2023-05-12T16:04:58.360Z,18.29
2023-05-12T16:07:37.660Z,18.45
2023-05-12T16:10:05.500Z,18.48
2023-05-12T16:12:32.393Z,18.37
2023-05-12T16:14:59.559Z,18.14
2023-05-12T16:17:27.936Z,18.23
2023-05-12T16:19:57.154Z,18.01
2023-05-12T16:22:26.976Z,18.21
2023-05-12T16:24:57.747Z,18.09
2023-05-12T16:27:24.668Z,18.15
2023-05-12T16:29:53.561Z,18.37
2023-05-12T16:32:21.949Z,18.29
2023-05-12T16:34:50.077Z,18.07
2023-05-12T16:37:16.861Z,17.92
2023-05-12T16:39:43.557Z,17.98
2023-05-12T16:42:10.748Z,17.85
2023-05-12T16:44:37.451Z,17.67
2023-05-12T16:47:05.620Z,17.62
2023-05-12T16:49:32.280Z,17.31
2023-05-12T16:52:05.313Z,17.26
2023-05-12T16:54:32.862Z,17.21
2023-05-12T16:57:01.893Z,17.23
2023-05-12T16:59:28.863Z,17.09
2023-05-12T17:01:55.808Z,17.08
2023-05-12T17:04:22.503Z,16.98
2023-05-12T17:06:50.224Z,17.05
2023-05-12T17:09:20.732Z,17.18
2023-05-12T17:11:47.632Z,16.96
2023-05-12T17:14:18.974Z,17.01
2023-05-12T17:16:51.717Z,16.95
2023-05-12T17:19:18.874Z,16.95
2023-05-12T17:21:45.693Z,16.63
2023-05-12T17:24:12.533Z,16.61
2023-05-12T17:26:39.330Z,16.67
2023-05-12T17:29:09.263Z,16.66
2023-05-12T17:31:37.262Z,16.52
2023-05-12T17:34:05.154Z,16.53
2023-05-12T17:36:31.996Z,16.55
2023-05-12T17:38:58.938Z,16.56
2023-05-12T17:41:28.377Z,16.56
2023-05-12T17:43:55.955Z,16.55
2023-05-12T17:46:27.896Z,16.58
2023-05-12T17:48:54.726Z,16.50
2023-05-12T17:51:22.014Z,16.59
2023-05-12T17:53:54.781Z,16.50
2023-05-12T17:56:21.632Z,16.53
2023-05-12T17:58:49.522Z,16.52
2023-05-12T18:04:07.962Z,16.23
2023-05-12T18:06:35.054Z,16.19
2023-05-12T18:09:02.748Z,16.06
2023-05-12T18:11:29.844Z,16.11
2023-05-12T18:13:56.950Z,16.26
2023-05-12T18:16:29.031Z,16.13
2023-05-12T18:18:56.828Z,16.38
2023-05-12T18:21:24.345Z,16.42
2023-05-12T18:23:51.402Z,16.36
2023-05-12T18:26:21.646Z,16.16
2023-05-12T18:28:51.956Z,15.98
2023-05-12T18:31:20.304Z,15.96
2023-05-12T18:33:50.588Z,16.15
2023-05-12T18:36:17.669Z,15.98
2023-05-12T18:38:44.827Z,16.04
2023-05-12T18:41:12.577Z,16.16
2023-05-12T18:43:39.293Z,15.89
2023-05-12T18:46:06.320Z,15.78
2023-05-12T18:48:33.273Z,15.52
2023-05-12T18:51:01.547Z,15.92
2023-05-12T18:53:28.352Z,15.33
2023-05-12T18:55:55.187Z,15.24
2023-05-12T18:58:22.560Z,14.33
2023-05-12T19:00:49.498Z,14.58
2023-05-12T19:03:16.509Z,15.00
2023-05-12T19:05:45.516Z,14.99
2023-05-12T19:08:12.907Z,15.07
2023-05-12T19:10:40.302Z,15.23
2023-05-12T19:13:07.435Z,14.87
2023-05-12T19:15:34.422Z,14.54
2023-05-12T19:18:01.929Z,14.75
2023-05-12T19:20:29.326Z,14.95
2023-05-12T19:22:56.303Z,14.98
2023-05-12T19:25:23.983Z,14.91
2023-05-12T19:27:51.101Z,14.80
2023-05-12T19:30:20.898Z,15.22
2023-05-12T19:32:48.305Z,15.10
2023-05-12T19:35:15.887Z,14.91
2023-05-12T19:37:49.380Z,14.78
2023-05-12T19:40:16.121Z,15.07
2023-05-12T19:42:43.327Z,14.91
2023-05-12T19:45:11.304Z,14.80
2023-05-12T19:47:40.955Z,14.98
2023-05-12T19:50:14.972Z,14.83
2023-05-12T19:52:46.466Z,14.73
2023-05-12T19:55:13.497Z,14.83
2023-05-12T19:58:06.680Z,14.33
2023-05-12T20:00:33.620Z,14.37
2023-05-12T20:03:03.416Z,14.48
2023-05-12T20:05:30.724Z,14.51
2023-05-12T20:07:57.985Z,14.52
2023-05-12T20:11:28.060Z,14.68
2023-05-12T20:13:44.257Z,14.51
2023-05-12T20:16:17.456Z,14.29
2023-05-12T20:18:49.262Z,14.22
2023-05-12T20:21:28.007Z,14.22
2023-05-12T20:23:57.923Z,14.63
2023-05-12T20:26:27.186Z,14.76
2023-05-12T20:28:57.881Z,14.92
2023-05-12T20:31:35.195Z,15.03
2023-05-12T20:34:02.443Z,15.24
2023-05-12T20:36:29.495Z,15.19
2023-05-12T20:39:07.939Z,15.37
2023-05-12T20:42:07.082Z,15.26
2023-05-12T20:48:15.336Z,14.93
2023-05-12T20:51:25.031Z,14.94
2023-05-12T20:57:33.027Z,14.64
2023-05-12T21:01:35.916Z,14.60
2023-05-12T21:03:40.478Z,14.43
2023-05-12T21:06:07.536Z,14.46
2023-05-12T21:08:34.431Z,14.50
2023-05-12T21:11:01.318Z,14.59
2023-05-12T21:13:28.132Z,14.46
2023-05-12T21:15:55.088Z,14.21
2023-05-12T21:18:21.941Z,14.51
2023-05-12T21:20:48.913Z,14.53
2023-05-12T21:23:15.872Z,14.27
2023-05-12T21:25:42.728Z,14.32
2023-05-12T21:28:09.669Z,14.51
2023-05-12T21:30:37.436Z,14.74
2023-05-12T21:33:05.311Z,14.37
2023-05-12T21:35:32.333Z,14.41
2023-05-12T21:37:59.246Z,14.59
2023-05-12T21:40:26.356Z,14.29
2023-05-12T21:42:53.293Z,14.11
2023-05-12T21:45:21.684Z,14.51
2023-05-12T21:47:51.370Z,14.45
2023-05-12T21:50:18.556Z,14.54
2023-05-12T21:52:45.387Z,14.27
2023-05-12T21:55:12.856Z,14.73
2023-05-12T21:57:39.727Z,14.60
2023-05-12T22:00:09.873Z,14.55
2023-05-12T22:02:36.970Z,14.42
2023-05-12T22:05:04.746Z,14.52
2023-05-12T22:07:31.808Z,14.31
2023-05-12T22:09:58.663Z,14.07
2023-05-12T22:12:25.390Z,13.91
2023-05-12T22:14:52.343Z,14.18
2023-05-12T22:17:19.234Z,14.31
2023-05-12T22:22:27.242Z,14.01
2023-05-12T22:24:54.318Z,14.17
2023-05-12T22:27:22.273Z,14.25
2023-05-12T22:29:49.991Z,14.25
2023-05-12T22:32:16.826Z,14.21
2023-05-12T22:34:43.661Z,14.22
2023-05-12T22:37:10.844Z,14.18
2023-05-12T22:39:37.710Z,13.94
2023-05-12T22:42:04.883Z,13.83
2023-05-12T22:44:32.165Z,13.93
2023-05-12T22:46:59.171Z,13.67
2023-05-12T22:49:26.347Z,13.71
2023-05-12T22:51:53.460Z,13.43
2023-05-12T22:54:20.421Z,13.49
2023-05-12T22:56:47.579Z,13.18
2023-05-12T22:59:14.498Z,12.79
2023-05-12T23:01:41.402Z,12.77
2023-05-12T23:04:08.844Z,12.80
2023-05-12T23:06:39.856Z,12.44
2023-05-12T23:09:06.988Z,12.43
2023-05-12T23:11:34.026Z,12.23
2023-05-12T23:14:01.010Z,12.34
2023-05-12T23:16:28.554Z,12.26
2023-05-12T23:18:55.684Z,11.94
2023-05-12T23:21:22.525Z,11.98
2023-05-12T23:23:49.445Z,12.31
2023-05-12T23:26:16.464Z,12.15
2023-05-12T23:28:43.246Z,11.95
2023-05-12T23:31:10.456Z,11.53
2023-05-12T23:33:37.649Z,11.48
2023-05-12T23:36:04.780Z,11.49
2023-05-12T23:38:31.675Z,11.26
2023-05-12T23:40:58.600Z,11.51
2023-05-12T23:43:25.625Z,11.60
2023-05-12T23:45:52.630Z,11.73
2023-05-12T23:48:19.611Z,11.60
2023-05-12T23:50:49.430Z,11.48
2023-05-12T23:53:16.478Z,11.15
2023-05-12T23:55:44.968Z,11.45
2023-05-12T23:58:13.595Z,11.53
